Time;durP1;ratioP1;P1;durP2;ratioP2;P2;SDS_P1;SDS_P2;PMS_P1;PMS_P2;Temp;Humidity;BMP_temperature;BMP_pressure;BME280_temperature;BME280_humidity;BME280_pressure;Samples;Min_cycle;Max_cycle;Signal;HPM_P1;HPM_P2
2022/10/05 00:02:24;;;;;;;;;;;;;;;;;;5010782;28;20383;-63
2022/10/05 00:04:50;;;;;;;;;;;;;;;;;;5011549;28;19925;-64
2022/10/05 00:07:16;;;;;;;;;;;;;;;;;;5010845;28;19936;-64
2022/10/05 00:09:42;;;;;;;;;;;;;;;;;;5011251;28;19929;-64
2022/10/05 00:12:08;;;;;;;;;;;;;;;;;;5010687;28;20359;-65
2022/10/05 00:14:33;;;;;;;;;;;;;;;;;;5011600;28;19937;-64
2022/10/05 00:16:59;;;;;;;;;;;;;;;;;;5010812;28;19910;-65
2022/10/05 00:19:25;;;;;;;;;;;;;;;;;;5011354;28;19909;-64
2022/10/05 00:21:51;;;;;;;;;;;;;;;;;;5010561;28;20345;-63
2022/10/05 00:24:17;;;;;;;;;;;;;;;;;;5011453;28;19963;-65
2022/10/05 00:26:43;;;;;;;;;;;;;;;;;;5010631;28;19945;-65
2022/10/05 00:29:09;;;;;;;;;;;;;;;;;;5011160;28;19913;-64
2022/10/05 00:31:34;;;;;;;;;;;;;;;;;;5010151;28;19913;-64
2022/10/05 00:34:00;;;;;;;;;;;;;;;;;;5011274;28;20040;-64
2022/10/05 00:36:26;;;;;;;;;;;;;;;;;;5010746;28;19909;-64
2022/10/05 00:38:52;;;;;;;;;;;;;;;;;;5010591;28;19917;-64
2022/10/05 00:41:18;;;;;;;;;;;;;;;;;;5010484;28;20398;-65
2022/10/05 00:43:44;;;;;;;;;;;;;;;;;;5007829;28;19910;-64
2022/10/05 00:46:10;;;;;;;;;;;;;;;;;;5010455;28;20011;-65
2022/10/05 00:48:37;;;;;;;;;;;;;;;;;;5014066;28;20295;-64
2022/10/05 00:51:03;;;;;;;;;;;;;;;;;;5014171;28;19914;-65
2022/10/05 00:53:30;;;;;;;;;;;;;;;;;;5014791;28;19940;-64
2022/10/05 00:55:55;;;;;;;;;;;;;;;;;;5014234;28;20275;-64
2022/10/05 00:58:21;;;;;;;;;;;;;;;;;;5014734;28;19996;-64
2022/10/05 01:00:47;;;;;;;;;;;;;;;;;;5013350;28;19913;-63
2022/10/05 01:03:13;;;;;;;;;;;;;;;;;;5014567;28;19913;-63
2022/10/05 01:05:39;;;;;;;;;;;;;;;;;;5014202;28;20495;-64
2022/10/05 01:08:05;;;;;;;;;;;;;;;;;;5014363;28;19921;-64
2022/10/05 01:10:31;;;;;;;;;;;;;;;;;;5013964;28;19909;-64
2022/10/05 01:12:57;;;;;;;;;;;;;;;;;;5014401;28;19916;-65
2022/10/05 01:15:23;;;;;;;;;;;;;;;;;;5013875;28;19916;-64
2022/10/05 01:17:48;;;;;;;;;;;;;;;;;;5014433;28;19910;-64
2022/10/05 01:20:14;;;;;;;;;;;;;;;;;;5009226;28;19937;-64
2022/10/05 01:22:40;;;;;;;;;;;;;;;;;;5011041;28;19963;-64
2022/10/05 01:25:06;;;;;;;;;;;;;;;;;;5010053;28;19918;-63
2022/10/05 01:27:32;;;;;;;;;;;;;;;;;;4994264;28;19914;-64
2022/10/05 01:29:58;;;;;;;;;;;;;;;;;;4993933;28;20402;-64
2022/10/05 01:32:24;;;;;;;;;;;;;;;;;;4993797;28;19914;-63
2022/10/05 01:34:50;;;;;;;;;;;;;;;;;;5005432;28;19910;-64
2022/10/05 01:37:16;;;;;;;;;;;;;;;;;;5013593;28;19932;-64
2022/10/05 01:39:42;;;;;;;;;;;;;;;;;;5013894;28;19933;-64
2022/10/05 01:42:08;;;;;;;;;;;;;;;;;;5013098;28;20375;-64
2022/10/05 01:44:34;;;;;;;;;;;;;;;;;;5013976;28;19944;-65
2022/10/05 01:47:02;;;;;;;;;;;;;;;;;;5013095;28;20287;-64
2022/10/05 01:49:27;;;;;;;;;;;;;;;;;;5016191;28;19913;-64
2022/10/05 01:51:53;;;;;;;;;;;;;;;;;;5013059;28;19909;-65
2022/10/05 01:54:19;;;;;;;;;;;;;;;;;;5013587;28;20333;-64
2022/10/05 01:56:45;;;;;;;;;;;;;;;;;;5013210;28;19910;-64
2022/10/05 01:59:15;;;;;;;;;;;;;;;;;;5013448;28;19920;-65
2022/10/05 02:01:40;;;;;;;;;;;;;;;;;;5012657;28;20073;-63
2022/10/05 02:04:06;;;;;;;;;;;;;;;;;;5013448;28;20036;-64
2022/10/05 02:06:32;;;;;;;;;;;;;;;;;;5012870;28;19925;-63
2022/10/05 02:08:58;;;;;;;;;;;;;;;;;;5013495;28;20549;-65
2022/10/05 02:11:24;;;;;;;;;;;;;;;;;;5012665;28;20001;-64
2022/10/05 02:13:50;;;;;;;;;;;;;;;;;;5013154;28;19996;-64
2022/10/05 02:16:16;;;;;;;;;;;;;;;;;;5012732;28;19916;-64
2022/10/05 02:18:42;;;;;;;;;;;;;;;;;;5013344;28;20294;-64
2022/10/05 02:21:07;;;;;;;;;;;;;;;;;;5012459;28;19995;-64
2022/10/05 02:23:33;;;;;;;;;;;;;;;;;;5013168;28;19913;-63
2022/10/05 02:25:59;;;;;;;;;;;;;;;;;;5012538;28;19913;-65
2022/10/05 02:28:25;;;;;;;;;;;;;;;;;;5012967;28;19917;-64
2022/10/05 02:30:51;;;;;;;;;;;;;;;;;;5011864;28;20118;-64
2022/10/05 02:33:17;;;;;;;;;;;;;;;;;;5012889;28;19964;-64
2022/10/05 02:35:43;;;;;;;;;;;;;;;;;;5012364;28;19951;-63
2022/10/05 02:38:09;;;;;;;;;;;;;;;;;;5012687;28;19961;-64
2022/10/05 02:40:35;;;;;;;;;;;;;;;;;;5012263;28;19910;-64
2022/10/05 02:43:01;;;;;;;;;;;;;;;;;;5012686;28;20390;-64
2022/10/05 02:45:27;;;;;;;;;;;;;;;;;;5012038;28;20467;-64
2022/10/05 02:47:52;;;;;;;;;;;;;;;;;;5003728;28;19918;-64
2022/10/05 02:50:18;;;;;;;;;;;;;;;;;;5011858;28;19910;-64
2022/10/05 02:52:44;;;;;;;;;;;;;;;;;;5012627;28;19909;-64
2022/10/05 02:55:12;;;;;;;;;;;;;;;;;;5012044;28;19955;-64
2022/10/05 02:57:38;;;;;;;;;;;;;;;;;;5012371;28;19935;-64
2022/10/05 03:00:04;;;;;;;;;;;;;;;;;;5011885;28;19909;-64
2022/10/05 03:02:30;;;;;;;;;;;;;;;;;;5011755;28;20394;-64
2022/10/05 03:04:56;;;;;;;;;;;;;;;;;;5012129;28;19910;-64
2022/10/05 03:07:22;;;;;;;;;;;;;;;;;;5011959;28;19968;-64
2022/10/05 03:09:48;;;;;;;;;;;;;;;;;;5011759;28;19918;-63
2022/10/05 03:12:13;;;;;;;;;;;;;;;;;;5011385;28;19928;-65
2022/10/05 03:14:39;;;;;;;;;;;;;;;;;;5012362;28;19996;-64
2022/10/05 03:17:05;;;;;;;;;;;;;;;;;;5011699;28;19952;-65
2022/10/05 03:19:31;;;;;;;;;;;;;;;;;;5012171;28;20383;-64
2022/10/05 03:21:57;;;;;;;;;;;;;;;;;;5011348;28;19917;-64
2022/10/05 03:24:23;;;;;;;;;;;;;;;;;;5011910;28;19913;-64
2022/10/05 03:26:49;;;;;;;;;;;;;;;;;;5011747;28;20499;-64
2022/10/05 03:29:15;;;;;;;;;;;;;;;;;;5011918;28;19910;-65
2022/10/05 03:31:41;;;;;;;;;;;;;;;;;;5013320;28;19988;-64
2022/10/05 03:34:07;;;;;;;;;;;;;;;;;;5008466;28;19921;-62
2022/10/05 03:36:33;;;;;;;;;;;;;;;;;;5011361;28;19910;-64
2022/10/05 03:38:58;;;;;;;;;;;;;;;;;;5011546;28;20420;-65
2022/10/05 03:41:24;;;;;;;;;;;;;;;;;;5011051;28;19916;-64
2022/10/05 03:43:50;;;;;;;;;;;;;;;;;;5011850;28;19964;-64
2022/10/05 03:46:16;;;;;;;;;;;;;;;;;;5011060;28;19913;-65
2022/10/05 03:48:42;;;;;;;;;;;;;;;;;;5011205;28;19918;-64
2022/10/05 03:51:08;;;;;;;;;;;;;;;;;;5008752;28;19914;-68
2022/10/05 03:53:34;;;;;;;;;;;;;;;;;;5012394;28;19906;-65
2022/10/05 03:55:59;;;;;;;;;;;;;;;;;;5017331;28;20294;-66
2022/10/05 03:58:25;;;;;;;;;;;;;;;;;;4991846;28;19960;-67
2022/10/05 04:00:51;;;;;;;;;;;;;;;;;;4991590;28;20390;-66
2022/10/05 04:03:17;;;;;;;;;;;;;;;;;;4992490;28;19917;-66
2022/10/05 04:05:43;;;;;;;;;;;;;;;;;;4998488;28;19910;-67
2022/10/05 04:08:09;;;;;;;;;;;;;;;;;;5012005;28;20318;-68
2022/10/05 04:10:35;;;;;;;;;;;;;;;;;;5009153;28;19967;-68
2022/10/05 04:13:01;;;;;;;;;;;;;;;;;;5011721;28;20394;-69
2022/10/05 04:15:27;;;;;;;;;;;;;;;;;;5011402;28;19918;-64
2022/10/05 04:17:52;;;;;;;;;;;;;;;;;;5011676;28;20000;-67
2022/10/05 04:20:18;;;;;;;;;;;;;;;;;;5010797;28;20029;-65
2022/10/05 04:22:44;;;;;;;;;;;;;;;;;;5013634;28;19960;-65
2022/10/05 04:25:10;;;;;;;;;;;;;;;;;;5015703;28;20378;-66
2022/10/05 04:27:38;;;;;;;;;;;;;;;;;;5015137;28;19920;-65
2022/10/05 04:30:04;;;;;;;;;;;;;;;;;;5000133;28;19917;-65
2022/10/05 04:32:30;;;;;;;;;;;;;;;;;;4995471;28;20383;-64
2022/10/05 04:34:56;;;;;;;;;;;;;;;;;;4995509;28;20406;-65
2022/10/05 04:37:21;;;;;;;;;;;;;;;;;;4995466;28;19914;-65
2022/10/05 04:39:47;;;;;;;;;;;;;;;;;;4997980;28;19943;-65
2022/10/05 04:42:13;;;;;;;;;;;;;;;;;;5013618;28;19960;-65
2022/10/05 04:44:39;;;;;;;;;;;;;;;;;;5016240;28;20337;-66
2022/10/05 04:47:05;;;;;;;;;;;;;;;;;;5015468;28;19936;-66
2022/10/05 04:49:31;;;;;;;;;;;;;;;;;;5015413;28;20371;-66
2022/10/05 04:51:57;;;;;;;;;;;;;;;;;;5015620;28;19952;-68
2022/10/05 04:54:23;;;;;;;;;;;;;;;;;;5015592;28;19917;-66
2022/10/05 04:56:49;;;;;;;;;;;;;;;;;;5015022;28;19992;-66
2022/10/05 04:59:15;;;;;;;;;;;;;;;;;;5015415;28;19932;-65
2022/10/05 05:01:41;;;;;;;;;;;;;;;;;;5014378;28;19918;-65
2022/10/05 05:04:07;;;;;;;;;;;;;;;;;;5015797;28;19914;-66
2022/10/05 05:06:33;;;;;;;;;;;;;;;;;;5019600;28;19913;-66
2022/10/05 05:08:59;;;;;;;;;;;;;;;;;;5013480;28;19910;-65
2022/10/05 05:11:24;;;;;;;;;;;;;;;;;;5006748;28;19914;-66
2022/10/05 05:13:50;;;;;;;;;;;;;;;;;;5015170;28;20004;-66
2022/10/05 05:16:16;;;;;;;;;;;;;;;;;;5014548;28;19916;-65
2022/10/05 05:18:42;;;;;;;;;;;;;;;;;;5015641;28;19963;-65
2022/10/05 05:21:08;;;;;;;;;;;;;;;;;;5014371;28;19915;-66
2022/10/05 05:23:34;;;;;;;;;;;;;;;;;;5017654;28;19909;-65
2022/10/05 05:26:00;;;;;;;;;;;;;;;;;;5015117;28;20302;-65
2022/10/05 05:28:26;;;;;;;;;;;;;;;;;;5014829;28;20376;-66
2022/10/05 05:30:52;;;;;;;;;;;;;;;;;;5014246;28;19913;-66
2022/10/05 05:33:17;;;;;;;;;;;;;;;;;;5014759;28;20322;-64
2022/10/05 05:35:43;;;;;;;;;;;;;;;;;;5015048;28;19925;-66
2022/10/05 05:38:09;;;;;;;;;;;;;;;;;;5014977;28;19921;-66
2022/10/05 05:40:35;;;;;;;;;;;;;;;;;;5015203;28;20012;-66
2022/10/05 05:43:01;;;;;;;;;;;;;;;;;;5010105;28;19966;-66
2022/10/05 05:45:27;;;;;;;;;;;;;;;;;;5015058;28;19971;-65
2022/10/05 05:47:53;;;;;;;;;;;;;;;;;;5015661;28;20000;-66
2022/10/05 05:50:19;;;;;;;;;;;;;;;;;;5014014;28;20337;-65
2022/10/05 05:52:45;;;;;;;;;;;;;;;;;;5018160;28;19913;-65
2022/10/05 05:55:11;;;;;;;;;;;;;;;;;;5008291;28;20429;-66
2022/10/05 05:57:37;;;;;;;;;;;;;;;;;;4994640;28;20059;-67
2022/10/05 06:00:04;;;;;;;;;;;;;;;;;;4994891;28;19996;-65
2022/10/05 06:02:30;;;;;;;;;;;;;;;;;;4994691;28;19995;-66
2022/10/05 06:04:56;;;;;;;;;;;;;;;;;;4994987;28;19913;-68
2022/10/05 06:07:22;;;;;;;;;;;;;;;;;;4994438;28;20413;-66
2022/10/05 06:09:48;;;;;;;;;;;;;;;;;;4994950;28;19910;-66
2022/10/05 06:12:13;;;;;;;;;;;;;;;;;;4994057;28;19910;-65
2022/10/05 06:14:39;;;;;;;;;;;;;;;;;;4977932;28;19910;-65
2022/10/05 06:17:05;;;;;;;;;;;;;;;;;;4994454;28;19933;-65
2022/10/05 06:19:31;;;;;;;;;;;;;;;;;;4994519;28;20001;-67
2022/10/05 06:21:57;;;;;;;;;;;;;;;;;;4994658;28;20376;-65
2022/10/05 06:24:23;;;;;;;;;;;;;;;;;;4977541;28;19910;-66
2022/10/05 06:26:49;;;;;;;;;;;;;;;;;;4994349;28;19925;-70
2022/10/05 06:29:15;;;;;;;;;;;;;;;;;;4995005;28;20012;-65
2022/10/05 06:31:40;;;;;;;;;;;;;;;;;;4994357;28;20207;-65
2022/10/05 06:34:06;;;;;;;;;;;;;;;;;;4994876;28;19917;-66
2022/10/05 06:36:32;;;;;;;;;;;;;;;;;;4998347;28;19909;-66
2022/10/05 06:38:58;;;;;;;;;;;;;;;;;;5015119;28;19918;-66
2022/10/05 06:41:24;;;;;;;;;;;;;;;;;;5012435;28;19910;-66
2022/10/05 06:43:50;;;;;;;;;;;;;;;;;;5014333;28;19914;-65
2022/10/05 06:46:16;;;;;;;;;;;;;;;;;;5009303;28;19917;-66
2022/10/05 06:48:42;;;;;;;;;;;;;;;;;;5013691;28;19922;-66
2022/10/05 06:51:07;;;;;;;;;;;;;;;;;;5012890;28;19909;-68
2022/10/05 06:53:34;;;;;;;;;;;;;;;;;;5014000;28;19910;-65
2022/10/05 06:56:00;;;;;;;;;;;;;;;;;;5012990;28;19910;-65
2022/10/05 06:58:26;;;;;;;;;;;;;;;;;;5013787;28;19906;-67
2022/10/05 07:00:52;;;;;;;;;;;;;;;;;;5012459;28;20397;-66
2022/10/05 07:03:18;;;;;;;;;;;;;;;;;;5003630;28;19910;-66
2022/10/05 07:05:44;;;;;;;;;;;;;;;;;;4993831;28;19906;-66
2022/10/05 07:08:10;;;;;;;;;;;;;;;;;;4993740;28;19972;-67
2022/10/05 07:10:36;;;;;;;;;;;;;;;;;;4993227;28;19920;-66
2022/10/05 07:13:02;;;;;;;;;;;;;;;;;;4994121;28;19910;-66
2022/10/05 07:15:28;;;;;;;;;;;;;;;;;;4993228;28;19914;-65
2022/10/05 07:17:54;;;;;;;;;;;;;;;;;;4993824;28;20268;-67
2022/10/05 07:20:19;;;;;;;;;;;;;;;;;;5014624;28;19917;-66
2022/10/05 07:22:46;;;;;;;;;;;;;;;;;;4998717;28;19960;-66
2022/10/05 07:25:11;;;;;;;;;;;;;;;;;;5012794;28;19917;-66
2022/10/05 07:27:37;;;;;;;;;;;;;;;;;;5011633;28;19992;-65
2022/10/05 07:30:03;;;;;;;;;;;;;;;;;;5013127;28;20363;-65
2022/10/05 07:32:29;;;;;;;;;;;;;;;;;;5012017;28;19922;-66
2022/10/05 07:34:55;;;;;;;;;;;;;;;;;;5013187;28;19910;-66
2022/10/05 07:40:05;;;;;;;;;;;;;;;;;;5012783;28;19949;-65
2022/10/05 07:42:31;;;;;;;;;;;;;;;;;;5012793;28;19913;-65
2022/10/05 07:44:57;;;;;;;;;;;;;;;;;;5012873;28;20290;-66
2022/10/05 07:47:23;;;;;;;;;;;;;;;;;;5012209;28;19921;-66
2022/10/05 07:49:49;;;;;;;;;;;;;;;;;;5013226;28;19910;-65
2022/10/05 07:52:15;;;;;;;;;;;;;;;;;;5008074;28;19953;-66
2022/10/05 07:54:41;;;;;;;;;;;;;;;;;;5010795;28;20372;-66
2022/10/05 07:57:07;;;;;;;;;;;;;;;;;;4990766;28;19913;-65
2022/10/05 07:59:33;;;;;;;;;;;;;;;;;;5013012;28;20341;-66
2022/10/05 08:01:58;;;;;;;;;;;;;;;;;;5011588;28;19962;-66
2022/10/05 08:04:24;;;;;;;;;;;;;;;;;;5012872;28;20331;-66
2022/10/05 08:06:50;;;;;;;;;;;;;;;;;;5012276;28;19917;-66
2022/10/05 08:09:16;;;;;;;;;;;;;;;;;;5004072;28;19916;-65
2022/10/05 08:11:42;;;;;;;;;;;;;;;;;;5012495;28;20003;-66
2022/10/05 08:14:08;;;;;;;;;;;;;;;;;;5012693;28;19913;-66
2022/10/05 08:16:34;;;;;;;;;;;;;;;;;;5000859;28;19909;-66
2022/10/05 08:19:00;;;;;;;;;;;;;;;;;;4975797;28;19960;-66
2022/10/05 08:21:26;;;;;;;;;;;;;;;;;;4992477;28;20320;-65
2022/10/05 08:23:53;;;;;;;;;;;;;;;;;;4993434;28;19914;-66
2022/10/05 08:26:21;;;;;;;;;;;;;;;;;;4991985;28;20368;-68
2022/10/05 08:28:49;;;;;;;;;;;;;;;;;;4993242;28;19910;-65
2022/10/05 08:31:15;;;;;;;;;;;;;;;;;;4991859;28;20008;-67
2022/10/05 08:33:41;;;;;;;;;;;;;;;;;;4992651;28;20437;-65
2022/10/05 08:36:07;;;;;;;;;;;;;;;;;;4975408;28;19910;-67
2022/10/05 08:38:33;;;;;;;;;;;;;;;;;;4975480;28;19932;-68
2022/10/05 08:40:59;;;;;;;;;;;;;;;;;;5006224;28;19916;-66
2022/10/05 08:43:25;;;;;;;;;;;;;;;;;;5012373;28;20367;-66
2022/10/05 08:45:51;;;;;;;;;;;;;;;;;;5007130;28;19910;-67
2022/10/05 08:48:17;;;;;;;;;;;;;;;;;;4992689;28;19921;-66
2022/10/05 08:50:42;;;;;;;;;;;;;;;;;;4992027;28;19921;-66
2022/10/05 08:53:11;;;;;;;;;;;;;;;;;;5002343;28;19913;-68
2022/10/05 08:55:37;;;;;;;;;;;;;;;;;;4992357;28;20015;-66
2022/10/05 08:58:03;;;;;;;;;;;;;;;;;;4975414;28;19916;-66
2022/10/05 09:00:29;;;;;;;;;;;;;;;;;;4991826;28;19910;-66
2022/10/05 09:02:55;;;;;;;;;;;;;;;;;;4997642;28;20025;-65
2022/10/05 09:05:21;;;;;;;;;;;;;;;;;;5011935;28;19909;-65
2022/10/05 09:07:46;;;;;;;;;;;;;;;;;;5011980;28;19922;-65
2022/10/05 09:10:12;;;;;;;;;;;;;;;;;;5015002;28;19956;-66
2022/10/05 09:12:38;;;;;;;;;;;;;;;;;;5019330;28;19910;-65
2022/10/05 09:15:04;;;;;;;;;;;;;;;;;;5011378;28;19913;-65
2022/10/05 09:17:30;;;;;;;;;;;;;;;;;;5011936;28;20409;-66
2022/10/05 09:19:56;;;;;;;;;;;;;;;;;;4995817;28;19953;-65
2022/10/05 09:22:22;;;;;;;;;;;;;;;;;;4996223;28;19910;-65
2022/10/05 09:24:48;;;;;;;;;;;;;;;;;;4996024;28;19918;-64
2022/10/05 09:27:14;;;;;;;;;;;;;;;;;;4995595;28;19918;-66
2022/10/05 09:29:40;;;;;;;;;;;;;;;;;;4999208;28;19910;-66
2022/10/05 09:32:07;;;;;;;;;;;;;;;;;;5014308;28;19917;-66
2022/10/05 09:34:33;;;;;;;;;;;;;;;;;;5015635;28;19909;-66
2022/10/05 09:36:59;;;;;;;;;;;;;;;;;;5014854;28;19909;-66
2022/10/05 09:39:25;;;;;;;;;;;;;;;;;;5006398;28;20442;-65
2022/10/05 09:41:51;;;;;;;;;;;;;;;;;;5011246;28;19996;-66
2022/10/05 09:44:17;;;;;;;;;;;;;;;;;;5015332;28;19909;-65
2022/10/05 09:46:43;;;;;;;;;;;;;;;;;;5014067;28;19919;-65
2022/10/05 09:49:10;;;;;;;;;;;;;;;;;;5014874;28;19914;-66
2022/10/05 09:51:36;;;;;;;;;;;;;;;;;;5014309;28;19905;-66
2022/10/05 09:54:02;;;;;;;;;;;;;;;;;;5014662;28;19986;-65
2022/10/05 09:56:28;;;;;;;;;;;;;;;;;;5014292;28;20004;-66
2022/10/05 09:58:53;;;;;;;;;;;;;;;;;;5015042;28;19906;-66
2022/10/05 10:01:19;;;;;;;;;;;;;;;;;;5015901;28;19939;-66
2022/10/05 10:03:45;;;;;;;;;;;;;;;;;;5015258;28;19952;-65
2022/10/05 10:06:11;;;;;;;;;;;;;;;;;;5007020;28;19992;-70
2022/10/05 10:08:37;;;;;;;;;;;;;;;;;;4994893;28;19910;-65
2022/10/05 10:11:03;;;;;;;;;;;;;;;;;;4991249;28;19910;-66
2022/10/05 10:13:29;;;;;;;;;;;;;;;;;;5014594;28;19910;-65
2022/10/05 10:15:56;;;;;;;;;;;;;;;;;;5008999;28;20351;-65
2022/10/05 10:18:22;;;;;;;;;;;;;;;;;;5011811;28;20425;-67
2022/10/05 10:20:48;;;;;;;;;;;;;;;;;;5008643;28;19913;-66
2022/10/05 10:23:14;;;;;;;;;;;;;;;;;;5010041;28;19913;-66
2022/10/05 10:25:40;;;;;;;;;;;;;;;;;;5013642;28;19909;-66
2022/10/05 10:28:05;;;;;;;;;;;;;;;;;;5008423;28;19924;-65
2022/10/05 10:30:31;;;;;;;;;;;;;;;;;;4993719;28;19921;-66
2022/10/05 10:32:57;;;;;;;;;;;;;;;;;;4995349;28;20461;-66
2022/10/05 10:35:23;;;;;;;;;;;;;;;;;;4994570;28;19964;-66
2022/10/05 10:37:49;;;;;;;;;;;;;;;;;;4993280;28;19914;-66
2022/10/05 10:40:15;;;;;;;;;;;;;;;;;;4994328;28;19921;-67
2022/10/05 10:42:41;;;;;;;;;;;;;;;;;;4994020;28;20722;-65
2022/10/05 10:45:07;;;;;;;;;;;;;;;;;;4976501;28;19968;-64
2022/10/05 10:47:33;;;;;;;;;;;;;;;;;;4993629;28;19920;-66
2022/10/05 10:49:58;;;;;;;;;;;;;;;;;;5001671;28;19909;-66
2022/10/05 10:52:24;;;;;;;;;;;;;;;;;;5013342;28;20350;-65
2022/10/05 10:54:52;;;;;;;;;;;;;;;;;;5013847;28;19996;-65
2022/10/05 10:57:18;;;;;;;;;;;;;;;;;;5013296;28;19909;-66
2022/10/05 10:59:43;;;;;;;;;;;;;;;;;;5013070;28;19913;-66
2022/10/05 11:02:09;;;;;;;;;;;;;;;;;;5013211;28;19921;-66
2022/10/05 11:04:35;;;;;;;;;;;;;;;;;;5013860;28;20391;-65
2022/10/05 11:07:01;;;;;;;;;;;;;;;;;;5012728;28;19928;-66
2022/10/05 11:09:27;;;;;;;;;;;;;;;;;;5013192;28;20445;-66
2022/10/05 11:11:53;;;;;;;;;;;;;;;;;;4993263;28;19921;-65
2022/10/05 11:14:20;;;;;;;;;;;;;;;;;;4983612;28;19956;-66
2022/10/05 11:16:45;;;;;;;;;;;;;;;;;;5012593;28;19909;-66
2022/10/05 11:19:11;;;;;;;;;;;;;;;;;;5013397;28;19917;-67
2022/10/05 11:21:38;;;;;;;;;;;;;;;;;;5014961;28;20434;-66
2022/10/05 11:24:04;;;;;;;;;;;;;;;;;;5013413;28;19909;-66
2022/10/05 11:26:31;;;;;;;;;;;;;;;;;;5012712;28;20039;-67
2022/10/05 11:28:57;;;;;;;;;;;;;;;;;;5011922;28;20370;-65
2022/10/05 11:31:23;;;;;;;;;;;;;;;;;;5011500;28;20019;-65
2022/10/05 11:33:48;;;;;;;;;;;;;;;;;;5013298;28;19940;-65
2022/10/05 11:36:14;;;;;;;;;;;;;;;;;;5008008;28;19910;-66
2022/10/05 11:38:41;;;;;;;;;;;;;;;;;;5007362;28;19957;-65
2022/10/05 11:41:06;;;;;;;;;;;;;;;;;;5006756;28;19920;-65
2022/10/05 11:43:32;;;;;;;;;;;;;;;;;;5010912;28;19996;-66
2022/10/05 11:45:58;;;;;;;;;;;;;;;;;;5012004;28;19909;-66
2022/10/05 11:48:24;;;;;;;;;;;;;;;;;;5013154;28;19945;-67
2022/10/05 11:50:50;;;;;;;;;;;;;;;;;;5012222;28;19909;-69
2022/10/05 11:53:16;;;;;;;;;;;;;;;;;;5012290;28;19917;-73
2022/10/05 11:55:42;;;;;;;;;;;;;;;;;;5011862;28;19996;-66
2022/10/05 11:58:08;;;;;;;;;;;;;;;;;;5012678;28;20291;-66
2022/10/05 12:00:34;;;;;;;;;;;;;;;;;;5012642;28;20024;-66
2022/10/05 12:03:00;;;;;;;;;;;;;;;;;;5014014;28;19956;-66
2022/10/05 12:05:25;;;;;;;;;;;;;;;;;;5012390;28;19910;-66
2022/10/05 12:07:51;;;;;;;;;;;;;;;;;;4975459;28;19922;-66
2022/10/05 12:10:19;;;;;;;;;;;;;;;;;;5008451;28;20409;-68
2022/10/05 12:12:44;;;;;;;;;;;;;;;;;;5012689;28;20367;-66
2022/10/05 12:15:10;;;;;;;;;;;;;;;;;;5005825;28;19910;-66
2022/10/05 12:17:36;;;;;;;;;;;;;;;;;;5010223;28;20359;-67
2022/10/05 12:20:02;;;;;;;;;;;;;;;;;;5011953;28;19916;-66
2022/10/05 12:22:28;;;;;;;;;;;;;;;;;;5011829;28;19913;-66
2022/10/05 12:24:54;;;;;;;;;;;;;;;;;;5012591;28;20016;-66
2022/10/05 12:27:20;;;;;;;;;;;;;;;;;;5004664;28;19920;-67
2022/10/05 12:29:46;;;;;;;;;;;;;;;;;;4974989;28;19972;-66
2022/10/05 12:32:12;;;;;;;;;;;;;;;;;;4991936;28;19972;-67
2022/10/05 12:34:38;;;;;;;;;;;;;;;;;;5009359;28;19917;-69
2022/10/05 12:37:04;;;;;;;;;;;;;;;;;;5004759;28;19917;-72
2022/10/05 12:39:30;;;;;;;;;;;;;;;;;;5012170;28;19918;-66
2022/10/05 12:41:56;;;;;;;;;;;;;;;;;;5011760;28;19909;-66
2022/10/05 12:44:22;;;;;;;;;;;;;;;;;;5014987;28;19992;-68
2022/10/05 12:46:48;;;;;;;;;;;;;;;;;;4996854;28;20273;-66
2022/10/05 12:49:14;;;;;;;;;;;;;;;;;;5002910;28;19913;-67
2022/10/05 12:51:40;;;;;;;;;;;;;;;;;;5015040;28;20337;-67
2022/10/05 12:54:06;;;;;;;;;;;;;;;;;;5016051;28;20306;-68
2022/10/05 12:56:31;;;;;;;;;;;;;;;;;;5012716;28;20189;-66
2022/10/05 12:58:57;;;;;;;;;;;;;;;;;;5011346;28;19925;-66
2022/10/05 13:01:23;;;;;;;;;;;;;;;;;;5010518;28;20334;-66
2022/10/05 13:03:49;;;;;;;;;;;;;;;;;;5016271;28;19945;-67
2022/10/05 13:06:15;;;;;;;;;;;;;;;;;;5000755;28;19948;-66
2022/10/05 13:08:41;;;;;;;;;;;;;;;;;;4996385;28;20000;-66
2022/10/05 13:11:07;;;;;;;;;;;;;;;;;;5008740;28;19948;-66
2022/10/05 13:13:33;;;;;;;;;;;;;;;;;;5007379;28;19936;-66
2022/10/05 13:15:59;;;;;;;;;;;;;;;;;;5010761;28;20434;-65
2022/10/05 13:18:25;;;;;;;;;;;;;;;;;;5011574;28;19956;-66
2022/10/05 13:20:51;;;;;;;;;;;;;;;;;;5014587;28;19914;-66
2022/10/05 13:23:17;;;;;;;;;;;;;;;;;;5018805;28;19910;-66
2022/10/05 13:25:43;;;;;;;;;;;;;;;;;;5012415;28;19910;-67
2022/10/05 13:28:08;;;;;;;;;;;;;;;;;;5010563;28;19936;-67
2022/10/05 13:30:35;;;;;;;;;;;;;;;;;;4995285;28;19914;-68
2022/10/05 13:33:01;;;;;;;;;;;;;;;;;;5016265;28;19910;-67
2022/10/05 13:35:27;;;;;;;;;;;;;;;;;;5018427;28;20005;-67
2022/10/05 13:37:53;;;;;;;;;;;;;;;;;;5017214;28;20016;-68
2022/10/05 13:40:20;;;;;;;;;;;;;;;;;;5010225;28;20383;-67
2022/10/05 13:42:47;;;;;;;;;;;;;;;;;;5011949;28;19956;-66
2022/10/05 13:45:13;;;;;;;;;;;;;;;;;;5016121;28;19940;-66
2022/10/05 13:47:39;;;;;;;;;;;;;;;;;;5016275;28;19968;-66
2022/10/05 13:50:04;;;;;;;;;;;;;;;;;;5016245;28;20278;-67
2022/10/05 13:52:30;;;;;;;;;;;;;;;;;;5008746;28;19944;-67
2022/10/05 13:54:56;;;;;;;;;;;;;;;;;;4996776;28;19925;-68
2022/10/05 13:57:22;;;;;;;;;;;;;;;;;;4996308;28;20283;-66
2022/10/05 13:59:48;;;;;;;;;;;;;;;;;;5006867;28;19967;-67
2022/10/05 14:02:14;;;;;;;;;;;;;;;;;;5007308;28;19953;-68
2022/10/05 14:04:40;;;;;;;;;;;;;;;;;;5016072;28;20266;-67
2022/10/05 14:07:07;;;;;;;;;;;;;;;;;;5015088;28;19921;-69
2022/10/05 14:09:33;;;;;;;;;;;;;;;;;;5015234;28;19909;-67
2022/10/05 14:11:59;;;;;;;;;;;;;;;;;;5014418;28;19909;-68
2022/10/05 14:14:25;;;;;;;;;;;;;;;;;;5015106;28;19916;-67
2022/10/05 14:16:51;;;;;;;;;;;;;;;;;;5012257;28;19917;-67
2022/10/05 14:19:21;;;;;;;;;;;;;;;;;;5001263;28;20283;-66
2022/10/05 14:21:48;;;;;;;;;;;;;;;;;;4994627;28;19917;-67
2022/10/05 14:24:14;;;;;;;;;;;;;;;;;;4994984;28;20000;-68
2022/10/05 14:26:40;;;;;;;;;;;;;;;;;;4994399;28;19965;-66
2022/10/05 14:29:05;;;;;;;;;;;;;;;;;;5006746;28;19917;-66
2022/10/05 14:31:31;;;;;;;;;;;;;;;;;;5012929;28;19918;-66
2022/10/05 14:33:58;;;;;;;;;;;;;;;;;;5005860;28;19909;-66
2022/10/05 14:36:24;;;;;;;;;;;;;;;;;;5013347;28;19956;-67
2022/10/05 14:38:50;;;;;;;;;;;;;;;;;;5003381;28;20540;-68
2022/10/05 14:41:16;;;;;;;;;;;;;;;;;;4996401;28;20028;-67
2022/10/05 14:43:42;;;;;;;;;;;;;;;;;;5002638;28;19941;-68
2022/10/05 14:46:09;;;;;;;;;;;;;;;;;;4991875;28;19953;-67
2022/10/05 14:48:35;;;;;;;;;;;;;;;;;;4992524;28;20338;-65
2022/10/05 14:51:02;;;;;;;;;;;;;;;;;;4991859;28;19921;-67
2022/10/05 14:53:28;;;;;;;;;;;;;;;;;;5006806;28;19913;-68
2022/10/05 14:55:55;;;;;;;;;;;;;;;;;;5010699;28;20000;-67
2022/10/05 14:58:22;;;;;;;;;;;;;;;;;;5000205;28;20283;-67
2022/10/05 15:00:48;;;;;;;;;;;;;;;;;;5010876;28;19914;-66
2022/10/05 15:03:16;;;;;;;;;;;;;;;;;;5011468;28;19917;-66
2022/10/05 15:05:42;;;;;;;;;;;;;;;;;;4993569;28;20383;-66
2022/10/05 15:08:07;;;;;;;;;;;;;;;;;;4992088;28;19913;-66
2022/10/05 15:10:33;;;;;;;;;;;;;;;;;;4990947;28;20374;-67
2022/10/05 15:12:59;;;;;;;;;;;;;;;;;;4991836;28;19941;-67
2022/10/05 15:15:25;;;;;;;;;;;;;;;;;;4991792;28;19914;-68
2022/10/05 15:17:51;;;;;;;;;;;;;;;;;;4998281;28;19941;-66
2022/10/05 15:20:17;;;;;;;;;;;;;;;;;;5007503;28;20494;-64
2022/10/05 15:22:43;;;;;;;;;;;;;;;;;;4996832;28;19960;-63
2022/10/05 15:25:09;;;;;;;;;;;;;;;;;;4987192;28;19913;-67
2022/10/05 15:27:35;;;;;;;;;;;;;;;;;;4987117;28;20406;-65
2022/10/05 15:30:02;;;;;;;;;;;;;;;;;;4987279;28;19949;-66
2022/10/05 15:32:28;;;;;;;;;;;;;;;;;;4987964;28;19960;-66
2022/10/05 15:34:55;;;;;;;;;;;;;;;;;;4988218;28;19914;-66
2022/10/05 15:37:21;;;;;;;;;;;;;;;;;;4988682;28;19953;-67
2022/10/05 15:39:47;;;;;;;;;;;;;;;;;;4986169;28;19949;-69
2022/10/05 15:42:14;;;;;;;;;;;;;;;;;;4986903;28;19910;-67
2022/10/05 15:44:39;;;;;;;;;;;;;;;;;;5004811;28;19917;-69
2022/10/05 15:47:05;;;;;;;;;;;;;;;;;;5005254;28;19918;-68
2022/10/05 15:49:32;;;;;;;;;;;;;;;;;;4988442;28;20103;-70
2022/10/05 15:51:58;;;;;;;;;;;;;;;;;;4987504;28;20485;-66
2022/10/05 15:54:40;;;;;;;;;;;;;;;;;;4974749;28;19910;-68
2022/10/05 15:57:06;;;;;;;;;;;;;;;;;;4993972;28;20324;-66
2022/10/05 15:59:32;;;;;;;;;;;;;;;;;;4986597;28;20417;-67
2022/10/05 16:01:59;;;;;;;;;;;;;;;;;;5004019;28;19937;-66
2022/10/05 16:04:25;;;;;;;;;;;;;;;;;;5007897;28;20260;-67
2022/10/05 16:09:55;;;;;;;;;;;;;;;;;;4942155;29;19907;-70
2022/10/05 16:12:21;;;;;;;;;;;;;;;;;;4943874;29;20383;-68
2022/10/05 16:14:47;;;;;;;;;;;;;;;;;;4972213;28;19914;-69
2022/10/05 16:17:13;;;;;;;;;;;;;;;;;;5006280;28;19912;-68
2022/10/05 16:19:39;;;;;;;;;;;;;;;;;;5001274;28;19909;-67
2022/10/05 16:22:05;;;;;;;;;;;;;;;;;;5008621;28;20004;-69
2022/10/05 16:24:31;;;;;;;;;;;;;;;;;;5010130;28;20219;-66
2022/10/05 16:26:57;;;;;;;;;;;;;;;;;;5006819;28;19921;-67
2022/10/05 16:29:23;;;;;;;;;;;;;;;;;;5010529;28;19914;-69
2022/10/05 16:31:50;;;;;;;;;;;;;;;;;;5001929;28;19918;-71
2022/10/05 16:34:16;;;;;;;;;;;;;;;;;;5005886;28;19914;-67
2022/10/05 16:36:43;;;;;;;;;;;;;;;;;;5006455;28;19920;-67
2022/10/05 16:39:09;;;;;;;;;;;;;;;;;;5009306;28;19924;-67
2022/10/05 16:41:36;;;;;;;;;;;;;;;;;;5009502;28;19914;-67
2022/10/05 16:44:01;;;;;;;;;;;;;;;;;;5008044;28;19944;-67